Terminal Aerodrome Forecast
Issued by NWS

Home | Current Version | Previous Version | Text Only | Print | Product List | Glossary On
Versions: 1 2 3 4 5 6 7 8 9 10 11 12 13 14 15 16 17 18 19 20 21
000
FTUS43 KSGF 241100
TAFJLN
TAF
KJLN 241120Z 2412/2512 17005KT 6SM BR FEW045 SCT250
      TEMPO 2412/2414 4SM BR
     FM241600 21010KT P6SM SKC=

USA.gov is the U.S. government's official web portal to all federal, state and local government web resources and services.